sensor_id;sensor_type;location;lat;lon;timestamp;P1;P2;P0
27143;PMS1003;14672;50.250;8.312;2023-05-16T00:00:23;46.33;44.67;25.00
27143;PMS1003;14672;50.250;8.312;2023-05-16T00:02:49;44.67;41.33;22.33
27143;PMS1003;14672;50.250;8.312;2023-05-16T00:05:16;48.00;43.75;24.75
27143;PMS1003;14672;50.250;8.312;2023-05-16T00:07:45;60.60;51.00;29.00
27143;PMS1003;14672;50.250;8.312;2023-05-16T00:10:11;56.20;48.80;28.60
27143;PMS1003;14672;50.250;8.312;2023-05-16T00:12:37;60.80;52.60;30.40
27143;PMS1003;14672;50.250;8.312;2023-05-16T00:15:08;53.00;47.25;28.00
27143;PMS1003;14672;50.250;8.312;2023-05-16T00:17:36;71.60;55.60;32.20
27143;PMS1003;14672;50.250;8.312;2023-05-16T00:20:03;56.60;50.00;29.20
27143;PMS1003;14672;50.250;8.312;2023-05-16T00:22:31;62.00;51.40;30.40
27143;PMS1003;14672;50.250;8.312;2023-05-16T00:24:57;51.60;48.60;29.80
27143;PMS1003;14672;50.250;8.312;2023-05-16T00:27:23;66.25;51.00;28.00
27143;PMS1003;14672;50.250;8.312;2023-05-16T00:29:49;62.25;52.50;31.25
27143;PMS1003;14672;50.250;8.312;2023-05-16T00:32:18;71.80;56.40;34.20
27143;PMS1003;14672;50.250;8.312;2023-05-16T00:34:43;65.75;52.75;30.75
27143;PMS1003;14672;50.250;8.312;2023-05-16T00:37:09;61.50;52.00;31.50
27143;PMS1003;14672;50.250;8.312;2023-05-16T00:39:35;62.25;50.50;30.50
27143;PMS1003;14672;50.250;8.312;2023-05-16T00:42:01;60.25;50.00;30.75
27143;PMS1003;14672;50.250;8.312;2023-05-16T00:44:27;65.00;52.25;30.75
27143;PMS1003;14672;50.250;8.312;2023-05-16T00:46:53;57.75;50.25;30.50
27143;PMS1003;14672;50.250;8.312;2023-05-16T00:49:19;58.00;51.00;30.40
27143;PMS1003;14672;50.250;8.312;2023-05-16T00:51:45;53.60;49.20;30.40
27143;PMS1003;14672;50.250;8.312;2023-05-16T00:54:12;62.20;51.40;28.00
27143;PMS1003;14672;50.250;8.312;2023-05-16T00:56:41;55.20;48.60;29.00
27143;PMS1003;14672;50.250;8.312;2023-05-16T00:59:09;60.00;50.20;30.00
27143;PMS1003;14672;50.250;8.312;2023-05-16T01:01:35;61.50;48.50;27.00
27143;PMS1003;14672;50.250;8.312;2023-05-16T01:04:04;60.75;51.00;28.25
27143;PMS1003;14672;50.250;8.312;2023-05-16T01:06:31;50.60;46.80;28.40
27143;PMS1003;14672;50.250;8.312;2023-05-16T01:08:58;64.00;51.40;30.20
27143;PMS1003;14672;50.250;8.312;2023-05-16T01:11:31;57.60;45.20;26.60
27143;PMS1003;14672;50.250;8.312;2023-05-16T01:25:31;51.00;43.00;22.50
27143;PMS1003;14672;50.250;8.312;2023-05-16T01:28:04;46.25;42.00;20.50
27143;PMS1003;14672;50.250;8.312;2023-05-16T01:30:37;49.25;42.50;23.25
27143;PMS1003;14672;50.250;8.312;2023-05-16T01:33:05;40.25;38.00;22.25
27143;PMS1003;14672;50.250;8.312;2023-05-16T01:35:32;54.25;44.75;23.25
27143;PMS1003;14672;50.250;8.312;2023-05-16T01:38:11;41.25;38.75;21.25
27143;PMS1003;14672;50.250;8.312;2023-05-16T01:40:54;45.25;41.00;20.75
27143;PMS1003;14672;50.250;8.312;2023-05-16T01:43:34;52.50;42.00;23.00
27143;PMS1003;14672;50.250;8.312;2023-05-16T01:46:32;47.00;42.25;20.00
27143;PMS1003;14672;50.250;8.312;2023-05-16T01:49:02;46.50;43.75;22.75
27143;PMS1003;14672;50.250;8.312;2023-05-16T01:51:41;41.25;38.25;21.00
27143;PMS1003;14672;50.250;8.312;2023-05-16T01:54:15;46.00;42.00;23.75
27143;PMS1003;14672;50.250;8.312;2023-05-16T01:56:51;41.50;39.50;20.50
27143;PMS1003;14672;50.250;8.312;2023-05-16T01:59:20;45.25;40.75;23.00
27143;PMS1003;14672;50.250;8.312;2023-05-16T02:01:48;41.00;36.75;20.25
27143;PMS1003;14672;50.250;8.312;2023-05-16T02:04:14;42.33;36.00;18.00
27143;PMS1003;14672;50.250;8.312;2023-05-16T02:06:42;38.67;35.33;19.33
27143;PMS1003;14672;50.250;8.312;2023-05-16T02:09:08;48.25;40.75;21.75
27143;PMS1003;14672;50.250;8.312;2023-05-16T02:11:34;48.33;42.33;23.33
27143;PMS1003;14672;50.250;8.312;2023-05-16T02:14:00;45.00;42.33;22.67
27143;PMS1003;14672;50.250;8.312;2023-05-16T02:16:26;44.67;40.67;21.00
27143;PMS1003;14672;50.250;8.312;2023-05-16T02:18:53;46.00;40.25;20.25
27143;PMS1003;14672;50.250;8.312;2023-05-16T02:21:19;53.67;40.00;20.67
27143;PMS1003;14672;50.250;8.312;2023-05-16T02:23:45;49.67;45.67;21.00
27143;PMS1003;14672;50.250;8.312;2023-05-16T02:26:11;44.00;40.00;21.25
27143;PMS1003;14672;50.250;8.312;2023-05-16T02:28:36;51.33;42.33;21.00
27143;PMS1003;14672;50.250;8.312;2023-05-16T02:31:02;45.33;42.33;20.33
27143;PMS1003;14672;50.250;8.312;2023-05-16T02:33:28;48.75;43.75;22.50
27143;PMS1003;14672;50.250;8.312;2023-05-16T02:35:54;44.50;41.50;21.25
27143;PMS1003;14672;50.250;8.312;2023-05-16T02:38:20;48.00;43.67;20.67
27143;PMS1003;14672;50.250;8.312;2023-05-16T02:40:46;46.67;43.00;23.00
27143;PMS1003;14672;50.250;8.312;2023-05-16T02:43:12;45.00;40.50;20.75
27143;PMS1003;14672;50.250;8.312;2023-05-16T02:45:38;40.00;37.00;20.33
27143;PMS1003;14672;50.250;8.312;2023-05-16T02:48:04;39.50;38.25;21.00
27143;PMS1003;14672;50.250;8.312;2023-05-16T02:50:31;39.50;37.25;20.25
27143;PMS1003;14672;50.250;8.312;2023-05-16T02:52:58;45.25;41.25;21.75
27143;PMS1003;14672;50.250;8.312;2023-05-16T02:55:26;45.50;38.75;20.50
27143;PMS1003;14672;50.250;8.312;2023-05-16T02:57:55;47.50;41.75;17.75
27143;PMS1003;14672;50.250;8.312;2023-05-16T03:00:21;42.67;39.33;20.00
27143;PMS1003;14672;50.250;8.312;2023-05-16T03:02:47;43.25;39.75;21.50
27143;PMS1003;14672;50.250;8.312;2023-05-16T03:05:13;49.00;43.00;20.00
27143;PMS1003;14672;50.250;8.312;2023-05-16T03:07:39;41.00;37.33;19.00
27143;PMS1003;14672;50.250;8.312;2023-05-16T03:10:05;40.00;33.00;18.25
27143;PMS1003;14672;50.250;8.312;2023-05-16T03:12:31;39.00;35.50;17.75
27143;PMS1003;14672;50.250;8.312;2023-05-16T03:14:57;35.33;34.33;20.33
27143;PMS1003;14672;50.250;8.312;2023-05-16T03:17:23;37.00;32.00;16.00
27143;PMS1003;14672;50.250;8.312;2023-05-16T03:19:49;40.67;34.67;15.33
27143;PMS1003;14672;50.250;8.312;2023-05-16T03:22:15;38.25;34.75;17.50
27143;PMS1003;14672;50.250;8.312;2023-05-16T03:24:41;39.00;35.67;18.00
27143;PMS1003;14672;50.250;8.312;2023-05-16T03:27:06;33.67;32.00;15.00
27143;PMS1003;14672;50.250;8.312;2023-05-16T03:29:32;36.00;30.67;14.33
27143;PMS1003;14672;50.250;8.312;2023-05-16T03:31:59;31.00;30.00;15.50
27143;PMS1003;14672;50.250;8.312;2023-05-16T03:34:24;31.67;29.00;16.33
27143;PMS1003;14672;50.250;8.312;2023-05-16T03:36:50;38.00;30.67;13.67
27143;PMS1003;14672;50.250;8.312;2023-05-16T03:39:16;33.67;28.00;14.33
27143;PMS1003;14672;50.250;8.312;2023-05-16T03:41:42;32.33;27.67;15.33
27143;PMS1003;14672;50.250;8.312;2023-05-16T03:44:08;27.75;26.25;15.00
27143;PMS1003;14672;50.250;8.312;2023-05-16T03:46:34;23.00;21.00;9.33
27143;PMS1003;14672;50.250;8.312;2023-05-16T03:49:00;22.50;21.25;11.25
27143;PMS1003;14672;50.250;8.312;2023-05-16T03:51:26;17.00;17.00;7.33
27143;PMS1003;14672;50.250;8.312;2023-05-16T03:53:52;23.25;20.75;8.75
27143;PMS1003;14672;50.250;8.312;2023-05-16T03:56:18;23.25;23.25;11.00
27143;PMS1003;14672;50.250;8.312;2023-05-16T03:58:46;12.50;12.25;7.00
27143;PMS1003;14672;50.250;8.312;2023-05-16T04:01:12;17.75;14.75;6.00
27143;PMS1003;14672;50.250;8.312;2023-05-16T04:03:38;11.75;11.75;6.00
27143;PMS1003;14672;50.250;8.312;2023-05-16T04:06:05;14.33;12.00;6.00
27143;PMS1003;14672;50.250;8.312;2023-05-16T04:08:35;10.00;10.00;4.00
27143;PMS1003;14672;50.250;8.312;2023-05-16T04:11:00;13.67;12.00;4.00
27143;PMS1003;14672;50.250;8.312;2023-05-16T04:13:26;11.00;11.00;4.00
27143;PMS1003;14672;50.250;8.312;2023-05-16T04:15:52;12.00;11.67;4.67
27143;PMS1003;14672;50.250;8.312;2023-05-16T04:18:18;12.00;11.67;6.00
27143;PMS1003;14672;50.250;8.312;2023-05-16T04:20:44;14.00;12.00;4.00
27143;PMS1003;14672;50.250;8.312;2023-05-16T04:23:11;12.00;10.50;3.75
27143;PMS1003;14672;50.250;8.312;2023-05-16T04:25:37;11.33;11.33;6.00
27143;PMS1003;14672;50.250;8.312;2023-05-16T04:28:03;9.00;8.00;3.00
27143;PMS1003;14672;50.250;8.312;2023-05-16T04:30:29;10.00;10.00;5.50
27143;PMS1003;14672;50.250;8.312;2023-05-16T04:32:55;15.33;14.00;7.00
27143;PMS1003;14672;50.250;8.312;2023-05-16T04:35:23;11.00;11.00;5.50
27143;PMS1003;14672;50.250;8.312;2023-05-16T04:37:50;11.00;10.25;3.75
27143;PMS1003;14672;50.250;8.312;2023-05-16T04:40:19;11.75;11.25;5.50
27143;PMS1003;14672;50.250;8.312;2023-05-16T04:42:45;14.00;13.33;6.00
27143;PMS1003;14672;50.250;8.312;2023-05-16T04:45:11;9.25;9.00;4.00
27143;PMS1003;14672;50.250;8.312;2023-05-16T04:47:41;12.00;10.75;4.50
27143;PMS1003;14672;50.250;8.312;2023-05-16T04:50:07;11.67;11.00;4.00
27143;PMS1003;14672;50.250;8.312;2023-05-16T04:52:33;9.50;9.50;4.00
27143;PMS1003;14672;50.250;8.312;2023-05-16T04:54:59;7.00;7.00;3.33
27143;PMS1003;14672;50.250;8.312;2023-05-16T04:57:25;7.00;7.00;3.50
27143;PMS1003;14672;50.250;8.312;2023-05-16T04:59:51;8.67;8.67;4.00
27143;PMS1003;14672;50.250;8.312;2023-05-16T05:02:17;11.33;10.67;4.00
27143;PMS1003;14672;50.250;8.312;2023-05-16T05:04:43;11.00;11.00;4.00
27143;PMS1003;14672;50.250;8.312;2023-05-16T05:07:09;9.00;9.00;3.00
27143;PMS1003;14672;50.250;8.312;2023-05-16T05:09:37;7.00;7.00;3.25
27143;PMS1003;14672;50.250;8.312;2023-05-16T05:12:03;11.00;11.00;4.00
27143;PMS1003;14672;50.250;8.312;2023-05-16T05:14:30;7.00;7.00;3.00
27143;PMS1003;14672;50.250;8.312;2023-05-16T05:16:55;7.33;7.33;3.67
27143;PMS1003;14672;50.250;8.312;2023-05-16T05:19:21;11.33;10.67;3.00
27143;PMS1003;14672;50.250;8.312;2023-05-16T05:21:47;8.00;8.00;4.00
27143;PMS1003;14672;50.250;8.312;2023-05-16T05:24:12;8.00;8.00;3.00
27143;PMS1003;14672;50.250;8.312;2023-05-16T05:26:38;8.00;8.00;3.67
27143;PMS1003;14672;50.250;8.312;2023-05-16T05:29:05;7.50;7.50;2.00
27143;PMS1003;14672;50.250;8.312;2023-05-16T05:31:30;7.00;7.00;3.67
27143;PMS1003;14672;50.250;8.312;2023-05-16T05:33:58;6.00;6.00;3.00
27143;PMS1003;14672;50.250;8.312;2023-05-16T05:36:25;7.50;7.00;2.50
27143;PMS1003;14672;50.250;8.312;2023-05-16T05:38:50;11.00;10.00;4.00
27143;PMS1003;14672;50.250;8.312;2023-05-16T05:41:16;12.00;11.00;4.00
27143;PMS1003;14672;50.250;8.312;2023-05-16T05:43:42;8.00;8.00;3.00
27143;PMS1003;14672;50.250;8.312;2023-05-16T05:46:08;9.33;9.33;4.00
27143;PMS1003;14672;50.250;8.312;2023-05-16T05:48:33;7.67;7.67;3.00
27143;PMS1003;14672;50.250;8.312;2023-05-16T05:50:59;9.00;9.00;4.00
27143;PMS1003;14672;50.250;8.312;2023-05-16T05:53:31;9.00;9.00;4.00
27143;PMS1003;14672;50.250;8.312;2023-05-16T05:55:57;11.00;11.00;6.00
27143;PMS1003;14672;50.250;8.312;2023-05-16T05:58:23;9.00;9.00;4.00
27143;PMS1003;14672;50.250;8.312;2023-05-16T06:00:48;9.00;9.00;4.00
27143;PMS1003;14672;50.250;8.312;2023-05-16T06:03:14;10.67;9.00;4.00
27143;PMS1003;14672;50.250;8.312;2023-05-16T06:05:40;8.00;6.00;2.33
27143;PMS1003;14672;50.250;8.312;2023-05-16T06:08:06;8.75;8.25;3.75
27143;PMS1003;14672;50.250;8.312;2023-05-16T06:10:32;7.00;7.00;3.00
27143;PMS1003;14672;50.250;8.312;2023-05-16T06:12:58;9.00;9.00;4.00
27143;PMS1003;14672;50.250;8.312;2023-05-16T06:15:24;12.33;9.00;4.00
27143;PMS1003;14672;50.250;8.312;2023-05-16T06:17:50;9.50;8.50;3.25
27143;PMS1003;14672;50.250;8.312;2023-05-16T06:20:16;8.00;8.00;3.33
27143;PMS1003;14672;50.250;8.312;2023-05-16T06:22:42;11.00;10.33;3.00
27143;PMS1003;14672;50.250;8.312;2023-05-16T06:25:08;11.00;7.67;3.00
27143;PMS1003;14672;50.250;8.312;2023-05-16T06:27:34;10.50;9.50;3.75
27143;PMS1003;14672;50.250;8.312;2023-05-16T06:30:00;10.33;10.33;4.00
27143;PMS1003;14672;50.250;8.312;2023-05-16T06:32:25;15.67;11.00;3.00
27143;PMS1003;14672;50.250;8.312;2023-05-16T06:34:51;11.00;9.00;3.00
27143;PMS1003;14672;50.250;8.312;2023-05-16T06:37:17;9.33;8.00;2.33
27143;PMS1003;14672;50.250;8.312;2023-05-16T06:39:43;8.00;8.00;3.67
27143;PMS1003;14672;50.250;8.312;2023-05-16T06:42:09;8.00;8.00;3.00
27143;PMS1003;14672;50.250;8.312;2023-05-16T06:44:35;9.00;9.00;3.00
27143;PMS1003;14672;50.250;8.312;2023-05-16T06:47:00;8.67;8.67;4.00
27143;PMS1003;14672;50.250;8.312;2023-05-16T06:49:26;11.33;9.67;4.00
27143;PMS1003;14672;50.250;8.312;2023-05-16T06:51:52;6.33;6.33;1.67
27143;PMS1003;14672;50.250;8.312;2023-05-16T06:54:18;8.00;8.00;3.00
27143;PMS1003;14672;50.250;8.312;2023-05-16T06:56:44;8.33;8.33;3.00
27143;PMS1003;14672;50.250;8.312;2023-05-16T06:59:10;9.00;9.00;5.25
27143;PMS1003;14672;50.250;8.312;2023-05-16T07:01:35;11.00;9.33;3.00
27143;PMS1003;14672;50.250;8.312;2023-05-16T07:04:01;8.67;8.67;3.00
27143;PMS1003;14672;50.250;8.312;2023-05-16T07:06:27;6.00;6.00;1.00
27143;PMS1003;14672;50.250;8.312;2023-05-16T07:08:52;6.00;6.00;1.00
27143;PMS1003;14672;50.250;8.312;2023-05-16T07:11:18;6.00;6.00;3.00
27143;PMS1003;14672;50.250;8.312;2023-05-16T07:13:44;6.00;6.00;1.00
27143;PMS1003;14672;50.250;8.312;2023-05-16T07:16:09;8.00;8.00;3.33
27143;PMS1003;14672;50.250;8.312;2023-05-16T07:18:35;4.67;4.67;1.00
27143;PMS1003;14672;50.250;8.312;2023-05-16T07:21:01;6.00;6.00;3.00
27143;PMS1003;14672;50.250;8.312;2023-05-16T07:23:27;4.33;4.00;1.00
27143;PMS1003;14672;50.250;8.312;2023-05-16T07:25:53;6.00;6.00;3.00
27143;PMS1003;14672;50.250;8.312;2023-05-16T07:28:18;5.00;5.00;1.00
27143;PMS1003;14672;50.250;8.312;2023-05-16T07:30:46;4.00;4.00;1.00
27143;PMS1003;14672;50.250;8.312;2023-05-16T07:33:11;3.00;3.00;0.00
27143;PMS1003;14672;50.250;8.312;2023-05-16T07:35:37;3.67;3.67;0.00
27143;PMS1003;14672;50.250;8.312;2023-05-16T07:38:03;3.00;3.00;0.00
27143;PMS1003;14672;50.250;8.312;2023-05-16T07:40:29;4.00;4.00;0.00
27143;PMS1003;14672;50.250;8.312;2023-05-16T07:42:55;4.00;4.00;1.00
27143;PMS1003;14672;50.250;8.312;2023-05-16T07:45:21;3.33;3.33;0.00
27143;PMS1003;14672;50.250;8.312;2023-05-16T07:47:47;4.00;4.00;0.00
27143;PMS1003;14672;50.250;8.312;2023-05-16T07:50:12;9.00;9.00;4.00
27143;PMS1003;14672;50.250;8.312;2023-05-16T07:52:38;5.25;5.00;0.50
27143;PMS1003;14672;50.250;8.312;2023-05-16T07:55:04;6.00;6.00;1.00
27143;PMS1003;14672;50.250;8.312;2023-05-16T07:57:31;6.00;4.00;0.00
27143;PMS1003;14672;50.250;8.312;2023-05-16T07:59:57;6.67;6.67;3.00
27143;PMS1003;14672;50.250;8.312;2023-05-16T08:02:23;6.00;6.00;1.67
27143;PMS1003;14672;50.250;8.312;2023-05-16T08:04:50;7.75;6.00;0.00
27143;PMS1003;14672;50.250;8.312;2023-05-16T08:07:16;6.25;6.25;1.00
27143;PMS1003;14672;50.250;8.312;2023-05-16T08:09:42;6.00;6.00;1.00
27143;PMS1003;14672;50.250;8.312;2023-05-16T08:12:07;6.00;6.00;1.00
27143;PMS1003;14672;50.250;8.312;2023-05-16T08:14:33;6.00;6.00;1.00
27143;PMS1003;14672;50.250;8.312;2023-05-16T08:17:04;6.25;6.25;1.50
27143;PMS1003;14672;50.250;8.312;2023-05-16T08:19:29;6.00;6.00;1.00
27143;PMS1003;14672;50.250;8.312;2023-05-16T08:21:57;7.25;7.25;1.00
27143;PMS1003;14672;50.250;8.312;2023-05-16T08:24:23;6.00;6.00;1.00
27143;PMS1003;14672;50.250;8.312;2023-05-16T08:26:49;6.00;6.00;1.00
27143;PMS1003;14672;50.250;8.312;2023-05-16T08:29:14;4.50;4.50;1.00
27143;PMS1003;14672;50.250;8.312;2023-05-16T08:31:41;5.00;4.00;1.00
27143;PMS1003;14672;50.250;8.312;2023-05-16T08:34:06;10.33;10.33;5.33
27143;PMS1003;14672;50.250;8.312;2023-05-16T08:36:34;6.00;6.00;1.00
27143;PMS1003;14672;50.250;8.312;2023-05-16T08:39:01;7.00;6.00;1.00
27143;PMS1003;14672;50.250;8.312;2023-05-16T08:41:29;6.75;6.25;1.00
27143;PMS1003;14672;50.250;8.312;2023-05-16T08:43:55;6.50;6.50;1.00
27143;PMS1003;14672;50.250;8.312;2023-05-16T08:46:22;7.75;7.75;3.00
27143;PMS1003;14672;50.250;8.312;2023-05-16T08:48:51;7.75;7.25;3.00
27143;PMS1003;14672;50.250;8.312;2023-05-16T08:51:19;6.00;6.00;1.00
27143;PMS1003;14672;50.250;8.312;2023-05-16T08:53:49;18.25;18.25;9.00
27143;PMS1003;14672;50.250;8.312;2023-05-16T08:56:23;15.75;9.00;3.00
27143;PMS1003;14672;50.250;8.312;2023-05-16T08:58:49;8.25;7.00;2.00
27143;PMS1003;14672;50.250;8.312;2023-05-16T09:01:22;8.50;8.50;3.00
27143;PMS1003;14672;50.250;8.312;2023-05-16T09:03:48;11.00;9.00;3.00
27143;PMS1003;14672;50.250;8.312;2023-05-16T09:06:15;11.50;11.00;3.25
27143;PMS1003;14672;50.250;8.312;2023-05-16T09:08:41;9.00;8.25;2.50
27143;PMS1003;14672;50.250;8.312;2023-05-16T09:11:08;12.00;11.00;1.67
27143;PMS1003;14672;50.250;8.312;2023-05-16T09:13:33;9.00;8.00;3.00
27143;PMS1003;14672;50.250;8.312;2023-05-16T09:16:15;11.00;9.25;2.00
27143;PMS1003;14672;50.250;8.312;2023-05-16T09:18:44;9.00;7.75;3.00
27143;PMS1003;14672;50.250;8.312;2023-05-16T09:21:25;9.00;9.00;3.00
27143;PMS1003;14672;50.250;8.312;2023-05-16T09:23:53;14.50;13.00;5.00
27143;PMS1003;14672;50.250;8.312;2023-05-16T09:26:20;11.75;11.25;4.00
27143;PMS1003;14672;50.250;8.312;2023-05-16T09:28:46;11.50;9.00;2.50
27143;PMS1003;14672;50.250;8.312;2023-05-16T09:31:18;12.25;11.00;4.00
27143;PMS1003;14672;50.250;8.312;2023-05-16T09:33:56;14.00;11.25;4.00
27143;PMS1003;14672;50.250;8.312;2023-05-16T09:36:25;11.00;11.00;4.75
27143;PMS1003;14672;50.250;8.312;2023-05-16T09:38:51;11.00;11.00;4.00
27143;PMS1003;14672;50.250;8.312;2023-05-16T09:41:17;9.50;9.50;3.25
27143;PMS1003;14672;50.250;8.312;2023-05-16T09:43:45;9.75;8.50;3.75
27143;PMS1003;14672;50.250;8.312;2023-05-16T09:46:14;8.67;8.00;3.00
27143;PMS1003;14672;50.250;8.312;2023-05-16T09:48:43;7.75;7.75;1.50
27143;PMS1003;14672;50.250;8.312;2023-05-16T09:51:13;8.00;7.75;3.25
27143;PMS1003;14672;50.250;8.312;2023-05-16T09:53:39;9.00;9.00;3.00
27143;PMS1003;14672;50.250;8.312;2023-05-16T09:56:09;9.00;9.00;3.00
27143;PMS1003;14672;50.250;8.312;2023-05-16T09:58:38;12.75;11.00;5.00
27143;PMS1003;14672;50.250;8.312;2023-05-16T10:01:06;8.50;8.25;3.00
27143;PMS1003;14672;50.250;8.312;2023-05-16T10:03:35;9.75;9.00;2.50
27143;PMS1003;14672;50.250;8.312;2023-05-16T10:06:04;14.50;12.00;5.00
27143;PMS1003;14672;50.250;8.312;2023-05-16T10:08:32;16.00;14.25;6.00
27143;PMS1003;14672;50.250;8.312;2023-05-16T10:11:00;14.75;9.50;4.50
27143;PMS1003;14672;50.250;8.312;2023-05-16T10:13:31;10.00;8.50;3.00
27143;PMS1003;14672;50.250;8.312;2023-05-16T10:16:05;8.00;8.00;1.00
27143;PMS1003;14672;50.250;8.312;2023-05-16T10:18:35;8.00;7.00;2.50
27143;PMS1003;14672;50.250;8.312;2023-05-16T10:21:04;9.00;7.00;2.50
27143;PMS1003;14672;50.250;8.312;2023-05-16T10:23:37;8.00;7.25;2.00
27143;PMS1003;14672;50.250;8.312;2023-05-16T10:26:06;7.00;7.00;1.00
27143;PMS1003;14672;50.250;8.312;2023-05-16T10:28:35;7.00;7.00;2.00
27143;PMS1003;14672;50.250;8.312;2023-05-16T10:31:04;8.50;8.50;2.50
27143;PMS1003;14672;50.250;8.312;2023-05-16T10:33:31;8.25;8.25;1.00
27143;PMS1003;14672;50.250;8.312;2023-05-16T10:35:58;9.75;7.25;3.00
27143;PMS1003;14672;50.250;8.312;2023-05-16T10:38:24;8.00;8.00;3.00
27143;PMS1003;14672;50.250;8.312;2023-05-16T10:40:52;9.25;7.00;3.00
27143;PMS1003;14672;50.250;8.312;2023-05-16T10:43:36;7.00;6.75;1.00
27143;PMS1003;14672;50.250;8.312;2023-05-16T10:46:09;9.50;8.25;3.75
27143;PMS1003;14672;50.250;8.312;2023-05-16T10:48:36;8.50;7.25;3.00
27143;PMS1003;14672;50.250;8.312;2023-05-16T10:54:07;7.00;7.00;1.50
27143;PMS1003;14672;50.250;8.312;2023-05-16T10:56:36;9.00;7.00;2.50
27143;PMS1003;14672;50.250;8.312;2023-05-16T10:59:03;9.00;9.00;3.00
27143;PMS1003;14672;50.250;8.312;2023-05-16T11:01:33;9.25;9.25;3.00
27143;PMS1003;14672;50.250;8.312;2023-05-16T11:04:06;11.50;9.75;3.25
27143;PMS1003;14672;50.250;8.312;2023-05-16T11:09:07;9.75;9.00;2.00
27143;PMS1003;14672;50.250;8.312;2023-05-16T11:27:32;14.00;14.00;7.50
27143;PMS1003;14672;50.250;8.312;2023-05-16T11:32:38;7.25;7.00;1.00
27143;PMS1003;14672;50.250;8.312;2023-05-16T11:35:06;7.00;7.00;2.00
27143;PMS1003;14672;50.250;8.312;2023-05-16T11:37:35;8.00;7.25;1.75
27143;PMS1003;14672;50.250;8.312;2023-05-16T11:40:02;7.00;7.00;2.00
27143;PMS1003;14672;50.250;8.312;2023-05-16T11:42:33;8.75;7.75;2.00
27143;PMS1003;14672;50.250;8.312;2023-05-16T11:45:19;7.25;7.00;2.00
27143;PMS1003;14672;50.250;8.312;2023-05-16T11:47:49;7.00;7.00;2.00
27143;PMS1003;14672;50.250;8.312;2023-05-16T11:50:16;5.00;5.00;1.00
27143;PMS1003;14672;50.250;8.312;2023-05-16T11:52:46;8.75;6.50;1.00
27143;PMS1003;14672;50.250;8.312;2023-05-16T11:55:18;7.50;7.00;1.50
27143;PMS1003;14672;50.250;8.312;2023-05-16T11:57:47;9.25;7.25;2.00
27143;PMS1003;14672;50.250;8.312;2023-05-16T12:00:20;9.25;8.75;4.00
27143;PMS1003;14672;50.250;8.312;2023-05-16T12:02:51;5.00;5.00;1.00
27143;PMS1003;14672;50.250;8.312;2023-05-16T12:05:27;7.25;7.25;1.75
27143;PMS1003;14672;50.250;8.312;2023-05-16T12:07:54;8.00;7.00;2.00
27143;PMS1003;14672;50.250;8.312;2023-05-16T12:10:21;5.00;5.00;2.00
27143;PMS1003;14672;50.250;8.312;2023-05-16T12:12:48;5.00;5.00;1.00
27143;PMS1003;14672;50.250;8.312;2023-05-16T12:15:19;5.00;5.00;1.00
27143;PMS1003;14672;50.250;8.312;2023-05-16T12:17:45;7.50;7.25;3.00
27143;PMS1003;14672;50.250;8.312;2023-05-16T12:20:12;5.50;5.50;1.00
27143;PMS1003;14672;50.250;8.312;2023-05-16T12:22:40;7.00;7.00;1.00
27143;PMS1003;14672;50.250;8.312;2023-05-16T12:27:58;6.75;5.50;1.50
27143;PMS1003;14672;50.250;8.312;2023-05-16T12:30:30;8.00;7.50;2.00
27143;PMS1003;14672;50.250;8.312;2023-05-16T12:35:33;10.25;6.75;1.00
27143;PMS1003;14672;50.250;8.312;2023-05-16T12:38:05;8.00;6.25;1.00
27143;PMS1003;14672;50.250;8.312;2023-05-16T12:40:38;5.00;5.00;1.00
27143;PMS1003;14672;50.250;8.312;2023-05-16T12:43:18;5.50;5.50;1.00
27143;PMS1003;14672;50.250;8.312;2023-05-16T12:45:56;4.25;4.25;0.75
27143;PMS1003;14672;50.250;8.312;2023-05-16T12:48:22;8.00;7.00;1.50
27143;PMS1003;14672;50.250;8.312;2023-05-16T12:50:56;5.00;5.00;1.00
27143;PMS1003;14672;50.250;8.312;2023-05-16T12:53:41;7.50;6.75;1.25
27143;PMS1003;14672;50.250;8.312;2023-05-16T12:56:11;5.00;5.00;1.00
27143;PMS1003;14672;50.250;8.312;2023-05-16T12:58:38;5.00;5.00;1.00
27143;PMS1003;14672;50.250;8.312;2023-05-16T13:01:04;9.00;8.00;2.00
27143;PMS1003;14672;50.250;8.312;2023-05-16T13:03:30;5.25;5.25;1.50
27143;PMS1003;14672;50.250;8.312;2023-05-16T13:05:58;5.00;5.00;1.00
27143;PMS1003;14672;50.250;8.312;2023-05-16T13:08:27;5.25;5.25;1.00
27143;PMS1003;14672;50.250;8.312;2023-05-16T13:10:54;7.25;7.25;1.75
27143;PMS1003;14672;50.250;8.312;2023-05-16T13:13:20;5.75;5.75;2.00
27143;PMS1003;14672;50.250;8.312;2023-05-16T13:15:47;4.50;4.25;1.00
27143;PMS1003;14672;50.250;8.312;2023-05-16T13:18:13;6.00;6.00;2.00
27143;PMS1003;14672;50.250;8.312;2023-05-16T13:20:39;5.50;5.00;1.00
27143;PMS1003;14672;50.250;8.312;2023-05-16T13:23:06;6.00;6.00;2.00
27143;PMS1003;14672;50.250;8.312;2023-05-16T13:25:32;5.00;5.00;1.00
27143;PMS1003;14672;50.250;8.312;2023-05-16T13:27:58;6.50;6.50;1.00
27143;PMS1003;14672;50.250;8.312;2023-05-16T13:30:25;8.50;6.50;1.75
27143;PMS1003;14672;50.250;8.312;2023-05-16T13:32:50;7.00;5.67;1.33
27143;PMS1003;14672;50.250;8.312;2023-05-16T13:35:17;5.00;5.00;1.00
27143;PMS1003;14672;50.250;8.312;2023-05-16T13:37:43;6.25;5.75;2.00
27143;PMS1003;14672;50.250;8.312;2023-05-16T13:40:09;5.00;5.00;1.75
27143;PMS1003;14672;50.250;8.312;2023-05-16T13:42:35;6.00;6.00;1.00
27143;PMS1003;14672;50.250;8.312;2023-05-16T13:45:05;5.75;5.75;1.75
27143;PMS1003;14672;50.250;8.312;2023-05-16T13:47:32;6.50;6.50;2.00
27143;PMS1003;14672;50.250;8.312;2023-05-16T13:49:58;6.00;6.00;2.00
27143;PMS1003;14672;50.250;8.312;2023-05-16T13:52:28;6.75;6.50;2.00
27143;PMS1003;14672;50.250;8.312;2023-05-16T13:54:54;7.00;7.00;2.00
27143;PMS1003;14672;50.250;8.312;2023-05-16T13:57:19;9.33;8.00;2.00
27143;PMS1003;14672;50.250;8.312;2023-05-16T13:59:47;6.75;6.75;2.50
27143;PMS1003;14672;50.250;8.312;2023-05-16T14:02:13;6.00;6.00;2.00
27143;PMS1003;14672;50.250;8.312;2023-05-16T14:04:39;6.25;6.00;1.00
27143;PMS1003;14672;50.250;8.312;2023-05-16T14:07:05;6.33;6.33;1.67
27143;PMS1003;14672;50.250;8.312;2023-05-16T14:09:31;6.00;5.00;1.00
27143;PMS1003;14672;50.250;8.312;2023-05-16T14:11:59;5.50;5.00;1.00
27143;PMS1003;14672;50.250;8.312;2023-05-16T14:14:27;7.75;6.50;1.25
27143;PMS1003;14672;50.250;8.312;2023-05-16T14:16:52;15.00;13.67;5.67
27143;PMS1003;14672;50.250;8.312;2023-05-16T14:19:18;9.00;8.00;2.67
27143;PMS1003;14672;50.250;8.312;2023-05-16T14:21:44;6.67;6.00;2.00
27143;PMS1003;14672;50.250;8.312;2023-05-16T14:24:10;6.00;6.00;2.00
27143;PMS1003;14672;50.250;8.312;2023-05-16T14:26:36;6.00;5.00;2.00
27143;PMS1003;14672;50.250;8.312;2023-05-16T14:29:02;6.50;6.25;2.25
27143;PMS1003;14672;50.250;8.312;2023-05-16T14:31:28;6.33;6.33;1.67
27143;PMS1003;14672;50.250;8.312;2023-05-16T14:33:54;9.75;9.00;3.75
27143;PMS1003;14672;50.250;8.312;2023-05-16T14:36:20;4.00;4.00;1.00
27143;PMS1003;14672;50.250;8.312;2023-05-16T14:38:45;6.00;5.67;2.00
27143;PMS1003;14672;50.250;8.312;2023-05-16T14:41:13;5.00;5.00;1.00
27143;PMS1003;14672;50.250;8.312;2023-05-16T14:43:39;5.33;5.33;1.67
27143;PMS1003;14672;50.250;8.312;2023-05-16T14:46:04;5.00;5.00;1.33
27143;PMS1003;14672;50.250;8.312;2023-05-16T14:48:30;6.00;6.00;2.00
27143;PMS1003;14672;50.250;8.312;2023-05-16T14:50:57;8.25;8.25;3.75